Obar, New Mexico
Current Conditions -  °F | °C
As of 4:53 AM on Monday 20 Oct 2014 (Local Time) from KTCC Reporting Station
Clear Clear  
Wind Chill: 52°   Ceiling: Unl
Heat Index: 52°   Visibility: 10mi
Dew Point: 47°   Wind: 6mph
Humidity: 83%   Direction: 280°W
Pressure: 30.1"   Gusts: NA
Location:  35.54°N, 103.2°W
Report Text: KTCC 201053Z AUTO 28005KT 10SM CLR 11/08 A3010 RMK AO2 SLP149 T01110083
Loading
Personal Weather Stations






























Interactive Weather Map
Tropical Storm Tracking
New forecast layout! Learn more

10-Day Weather Forecast

Advertisements
Track Severe Weather on mobile